Taipak, Kazakhstan
Current Conditions -  °F | °C
As of 7:00 AM on Wednesday 26 Nov 2014 (Local Time) from UATG Reporting Station
Clear Clear  
Wind Chill: -9°   Ceiling: Unl
Heat Index:   Visibility: 6mi
Dew Point: -2°   Wind: 7mph
Humidity: 78%   Direction: 70°ENE
Pressure: 30.59"   Gusts: NA
Location:  49.05°N, 51.87°E
Report Text: UATG 260300Z 07003MPS CAVOK M16/M19 Q1036 R14/CLRD70 NOSIG RMKQFE779/1039
Loading
Personal Weather Stations






























Interactive Weather Map New forecast layout! Learn more

10-Day Weather Forecast

Advertisements
Track Severe Weather on mobile